createdAt,value
2024-01-16T00:00:40.589Z,-0.91
2024-01-16T00:03:07.340Z,-1.30
2024-01-16T00:05:34.062Z,-1.43
2024-01-16T00:08:01.323Z,-1.31
2024-01-16T00:10:28.145Z,-1.60
2024-01-16T00:12:55.386Z,-1.52
2024-01-16T00:15:22.094Z,-1.21
2024-01-16T00:17:49.243Z,-1.14
2024-01-16T00:20:16.163Z,-1.30
2024-01-16T00:22:42.904Z,-1.22
2024-01-16T00:25:09.853Z,-1.17
2024-01-16T00:27:36.634Z,-1.26
2024-01-16T00:30:03.366Z,-1.37
2024-01-16T00:32:30.174Z,-1.29
2024-01-16T00:34:56.894Z,-0.99
2024-01-16T00:37:23.620Z,-1.02
2024-01-16T00:39:50.294Z,-1.16
2024-01-16T00:42:16.995Z,-0.98
2024-01-16T00:44:43.788Z,-0.71
2024-01-16T00:47:10.538Z,-1.23
2024-01-16T00:49:38.047Z,-1.53
2024-01-16T00:52:05.635Z,-1.41
2024-01-16T00:54:32.282Z,-1.68
2024-01-16T00:57:01.007Z,-1.08
2024-01-16T00:59:28.083Z,-1.30
2024-01-16T01:01:54.813Z,-1.40
2024-01-16T01:04:21.491Z,-1.60
2024-01-16T01:06:48.154Z,-1.18
2024-01-16T01:09:14.920Z,-1.06
2024-01-16T01:11:41.767Z,-0.81
2024-01-16T01:14:08.696Z,-1.18
2024-01-16T01:16:35.634Z,-1.09
2024-01-16T01:19:02.541Z,-1.36
2024-01-16T01:21:29.310Z,-1.77
2024-01-16T01:23:56.020Z,-1.72
2024-01-16T01:26:22.816Z,-1.41
2024-01-16T01:28:49.546Z,-1.63
2024-01-16T01:31:16.256Z,-1.86
2024-01-16T01:33:43.720Z,-1.52
2024-01-16T01:36:11.209Z,-1.76
2024-01-16T01:38:38.150Z,-1.47
2024-01-16T01:41:08.180Z,-1.71
2024-01-16T01:43:35.653Z,-1.52
2024-01-16T01:46:15.993Z,-1.64
2024-01-16T01:48:43.706Z,-1.14
2024-01-16T01:51:13.197Z,-1.13
2024-01-16T01:53:41.031Z,-1.31
2024-01-16T01:56:19.814Z,-1.28
2024-01-16T01:58:48.986Z,-1.39
2024-01-16T02:01:17.448Z,-1.43
2024-01-16T02:03:45.780Z,-1.19
2024-01-16T02:06:13.701Z,-1.39
2024-01-16T02:08:41.360Z,-1.59
2024-01-16T02:11:08.362Z,-1.50
2024-01-16T02:13:35.633Z,-1.21
2024-01-16T02:16:02.624Z,-1.47
2024-01-16T02:18:29.353Z,-1.79
2024-01-16T02:21:04.760Z,-1.58
2024-01-16T02:23:32.711Z,-1.52
2024-01-16T02:26:00.235Z,-1.58
2024-01-16T02:28:26.991Z,-1.74
2024-01-16T02:30:53.768Z,-1.42
2024-01-16T02:33:20.843Z,-1.57
2024-01-16T02:35:47.744Z,-1.70
2024-01-16T02:38:14.502Z,-1.74
2024-01-16T02:40:41.581Z,-1.44
2024-01-16T02:43:08.592Z,-1.68
2024-01-16T02:45:35.350Z,-1.67
2024-01-16T02:48:04.707Z,-1.52
2024-01-16T02:50:31.669Z,-1.57
2024-01-16T02:52:58.386Z,-1.71
2024-01-16T02:55:25.801Z,-1.68
2024-01-16T02:57:52.691Z,-1.86
2024-01-16T03:00:19.644Z,-1.76
2024-01-16T03:02:46.546Z,-1.27
2024-01-16T03:05:13.415Z,-1.50
2024-01-16T03:07:40.179Z,-1.55
2024-01-16T03:10:07.927Z,-1.51
2024-01-16T03:12:34.624Z,-1.33
2024-01-16T03:15:01.381Z,-1.74
2024-01-16T03:17:28.054Z,-1.80
2024-01-16T03:19:54.793Z,-1.71
2024-01-16T03:22:21.534Z,-2.20
2024-01-16T03:24:48.238Z,-2.27
2024-01-16T03:27:14.954Z,-2.29
2024-01-16T03:29:41.740Z,-2.55
2024-01-16T03:32:08.985Z,-2.52
2024-01-16T03:34:35.733Z,-2.13
2024-01-16T03:37:02.460Z,-2.18
2024-01-16T03:39:29.290Z,-2.08
2024-01-16T03:41:56.041Z,-2.21
2024-01-16T03:44:22.792Z,-2.24
2024-01-16T03:46:49.514Z,-1.83
2024-01-16T03:49:16.297Z,-1.94
2024-01-16T03:51:47.639Z,-2.07
2024-01-16T03:54:14.669Z,-2.01
2024-01-16T03:56:41.565Z,-2.28
2024-01-16T03:59:08.381Z,-2.14
2024-01-16T04:01:38.336Z,-2.04
2024-01-16T04:04:08.377Z,-1.81
2024-01-16T04:06:35.342Z,-1.67
2024-01-16T04:09:02.632Z,-2.04
2024-01-16T04:11:29.955Z,-2.18
2024-01-16T04:13:57.033Z,-2.41
2024-01-16T04:16:23.797Z,-2.50
2024-01-16T04:18:50.535Z,-2.63
2024-01-16T04:21:20.484Z,-2.65
2024-01-16T04:23:47.968Z,-2.54
2024-01-16T04:26:14.970Z,-2.42
2024-01-16T04:28:41.736Z,-2.49
2024-01-16T04:31:08.573Z,-2.62
2024-01-16T04:33:35.413Z,-2.23
2024-01-16T04:36:02.223Z,-2.40
2024-01-16T04:38:29.022Z,-2.48
2024-01-16T04:40:55.740Z,-2.53
2024-01-16T04:43:22.434Z,-2.50
2024-01-16T04:45:49.101Z,-2.64
2024-01-16T04:48:15.897Z,-2.76
2024-01-16T04:50:42.816Z,-2.75
2024-01-16T04:53:09.572Z,-2.77
2024-01-16T04:55:36.376Z,-2.48
2024-01-16T04:58:03.140Z,-2.51
2024-01-16T05:00:29.894Z,-2.65
2024-01-16T05:02:56.806Z,-2.51
2024-01-16T05:05:25.265Z,-2.51
2024-01-16T05:07:54.889Z,-2.59
2024-01-16T05:10:21.674Z,-2.53
2024-01-16T05:12:48.394Z,-2.47
2024-01-16T05:15:15.640Z,-2.36
2024-01-16T05:17:42.564Z,-2.38
2024-01-16T05:20:09.873Z,-2.26
2024-01-16T05:22:36.651Z,-2.53
2024-01-16T05:25:03.523Z,-2.66
2024-01-16T05:27:30.252Z,-2.79
2024-01-16T05:29:57.040Z,-2.70
2024-01-16T05:32:23.812Z,-2.65
2024-01-16T05:34:50.573Z,-2.80
2024-01-16T05:37:17.268Z,-2.84
2024-01-16T05:39:44.576Z,-2.95
2024-01-16T05:42:12.502Z,-2.90
2024-01-16T05:44:39.597Z,-2.91
2024-01-16T05:47:07.083Z,-2.93
2024-01-16T05:49:34.293Z,-2.91
2024-01-16T05:52:01.271Z,-3.02
2024-01-16T05:54:28.752Z,-2.95
2024-01-16T05:56:55.621Z,-2.95
2024-01-16T05:59:22.389Z,-2.88
2024-01-16T06:01:50.346Z,-2.84
2024-01-16T06:04:17.094Z,-2.77
2024-01-16T06:06:46.640Z,-2.89
2024-01-16T06:09:15.265Z,-2.86
2024-01-16T06:11:42.512Z,-2.93
2024-01-16T06:14:09.701Z,-3.07
2024-01-16T06:16:37.212Z,-3.14
2024-01-16T06:19:04.413Z,-2.80
2024-01-16T06:21:32.336Z,-2.61
2024-01-16T06:23:59.068Z,-2.32
2024-01-16T06:26:25.906Z,-2.32
2024-01-16T06:28:52.581Z,-2.43
2024-01-16T06:31:19.472Z,-2.38
2024-01-16T06:33:46.425Z,-2.55
2024-01-16T06:36:13.294Z,-2.50
2024-01-16T06:38:41.861Z,-2.75
2024-01-16T06:41:09.013Z,-2.70
2024-01-16T06:43:36.352Z,-2.80
2024-01-16T06:46:03.133Z,-3.13
2024-01-16T06:48:30.265Z,-3.29
2024-01-16T06:50:57.295Z,-3.23
2024-01-16T06:53:24.549Z,-3.15
2024-01-16T06:55:51.448Z,-3.00
2024-01-16T06:58:18.093Z,-2.82
2024-01-16T07:00:46.008Z,-3.03
2024-01-16T07:03:12.833Z,-3.09
2024-01-16T07:05:42.045Z,-2.92
2024-01-16T07:08:09.290Z,-2.97
2024-01-16T07:10:36.866Z,-2.89
2024-01-16T07:13:03.900Z,-2.73
2024-01-16T07:15:30.646Z,-2.85
2024-01-16T07:17:57.525Z,-2.78
2024-01-16T07:20:24.286Z,-2.69
2024-01-16T07:22:51.005Z,-2.89
2024-01-16T07:25:18.334Z,-2.73
2024-01-16T07:27:47.854Z,-2.57
2024-01-16T07:30:14.742Z,-2.54
2024-01-16T07:32:41.635Z,-2.71
2024-01-16T07:35:08.948Z,-2.59
2024-01-16T07:37:35.622Z,-2.54
2024-01-16T07:40:02.445Z,-2.45
2024-01-16T07:42:35.227Z,-2.30
2024-01-16T07:45:05.895Z,-2.14
2024-01-16T07:47:34.240Z,-2.08
2024-01-16T07:50:03.275Z,-1.90
2024-01-16T07:52:31.110Z,-1.75
2024-01-16T07:54:58.190Z,-1.65
2024-01-16T07:57:24.853Z,-1.55
2024-01-16T07:59:51.630Z,-1.33
2024-01-16T08:02:20.234Z,-1.16
2024-01-16T08:04:47.954Z,-0.91
2024-01-16T08:07:14.646Z,-0.78
2024-01-16T08:09:41.507Z,-0.63
2024-01-16T08:12:08.681Z,-0.44
2024-01-16T08:14:35.855Z,-0.28
2024-01-16T08:17:02.727Z,-0.09
2024-01-16T08:19:29.635Z,0.04
2024-01-16T08:21:56.335Z,0.01
2024-01-16T08:24:23.998Z,0.10
2024-01-16T08:26:50.835Z,0.27
2024-01-16T08:29:17.774Z,0.45
2024-01-16T08:31:44.542Z,0.60
2024-01-16T08:34:11.554Z,0.63
2024-01-16T08:36:38.550Z,0.63
2024-01-16T08:39:06.956Z,0.75
2024-01-16T08:41:33.736Z,0.95
2024-01-16T08:44:00.424Z,1.54
2024-01-16T08:46:27.089Z,2.12
2024-01-16T08:48:53.986Z,2.43
2024-01-16T08:51:20.855Z,2.83
2024-01-16T08:53:47.661Z,3.48
2024-01-16T08:56:14.512Z,4.06
2024-01-16T08:58:41.694Z,4.31
2024-01-16T09:01:08.611Z,4.16
2024-01-16T09:03:35.904Z,4.16
2024-01-16T09:06:03.095Z,3.84
2024-01-16T09:08:30.031Z,3.46
2024-01-16T09:10:57.883Z,3.03
2024-01-16T09:13:24.666Z,2.72
2024-01-16T09:15:51.469Z,2.34
2024-01-16T09:18:18.344Z,2.23
2024-01-16T09:20:45.686Z,2.20
2024-01-16T09:23:12.472Z,1.90
2024-01-16T09:25:39.374Z,1.97
2024-01-16T09:28:06.351Z,1.97
2024-01-16T09:30:34.599Z,2.10
2024-01-16T09:33:01.621Z,2.22
2024-01-16T09:35:28.486Z,2.38
2024-01-16T09:37:55.186Z,2.65
2024-01-16T09:40:22.021Z,3.27
2024-01-16T09:42:48.735Z,4.19
2024-01-16T09:45:23.074Z,5.12
2024-01-16T09:47:53.366Z,5.84
2024-01-16T09:50:20.926Z,6.31
2024-01-16T09:52:48.614Z,6.83
2024-01-16T09:55:16.534Z,7.12
2024-01-16T09:57:47.504Z,7.53
2024-01-16T10:00:15.226Z,7.89
2024-01-16T10:02:43.446Z,8.20
2024-01-16T10:05:12.643Z,8.03
2024-01-16T10:07:40.606Z,7.81
2024-01-16T10:10:12.081Z,7.83
2024-01-16T10:12:41.039Z,8.00
2024-01-16T10:15:09.143Z,8.33
2024-01-16T10:17:43.760Z,8.59
2024-01-16T10:20:17.742Z,8.69
2024-01-16T10:22:57.215Z,8.87
2024-01-16T10:25:24.000Z,9.21
2024-01-16T10:28:03.456Z,9.31
2024-01-16T10:30:30.451Z,9.10
2024-01-16T10:33:13.208Z,9.05
2024-01-16T10:35:40.047Z,9.00
2024-01-16T10:38:07.231Z,8.95
2024-01-16T10:40:35.319Z,8.69
2024-01-16T10:43:02.031Z,8.41
2024-01-16T10:45:28.906Z,8.24
2024-01-16T10:48:07.129Z,8.20
2024-01-16T10:50:35.644Z,8.41
2024-01-16T10:53:07.796Z,8.39
2024-01-16T10:55:54.494Z,8.54
2024-01-16T10:58:29.312Z,8.65
2024-01-16T11:00:58.760Z,8.67
2024-01-16T11:03:49.784Z,8.75
2024-01-16T11:06:18.674Z,8.73
2024-01-16T11:08:49.924Z,8.69
2024-01-16T11:11:17.828Z,8.49
2024-01-16T11:13:47.713Z,8.37
2024-01-16T11:16:14.749Z,8.26
2024-01-16T11:18:41.682Z,8.20
2024-01-16T11:21:19.571Z,8.25
2024-01-16T11:23:47.952Z,8.33
2024-01-16T11:26:35.372Z,8.43
2024-01-16T11:29:27.950Z,8.75
2024-01-16T11:32:13.174Z,8.87
2024-01-16T11:34:45.721Z,9.00
2024-01-16T11:37:15.317Z,9.19
2024-01-16T11:39:42.170Z,9.41
2024-01-16T11:42:12.007Z,9.62
2024-01-16T11:44:42.789Z,9.50
2024-01-16T11:47:10.465Z,9.03
2024-01-16T11:49:41.585Z,8.76
2024-01-16T11:52:08.918Z,8.77
2024-01-16T11:54:35.622Z,9.11
2024-01-16T11:57:45.301Z,9.58
2024-01-16T12:00:20.902Z,9.98
2024-01-16T12:02:54.083Z,10.16
2024-01-16T12:05:21.961Z,10.00
2024-01-16T12:07:55.631Z,9.72
2024-01-16T12:10:24.475Z,9.38
2024-01-16T12:12:52.846Z,9.02
2024-01-16T12:15:21.669Z,8.89
2024-01-16T12:18:09.260Z,8.65
2024-01-16T12:20:40.352Z,8.51
2024-01-16T12:23:08.562Z,8.62
2024-01-16T12:26:00.804Z,8.42
2024-01-16T12:28:31.829Z,7.99
2024-01-16T12:31:01.053Z,7.78
2024-01-16T12:33:28.900Z,7.46
2024-01-16T12:36:04.429Z,7.09
2024-01-16T12:38:31.504Z,6.78
2024-01-16T12:40:59.870Z,6.46
2024-01-16T12:43:26.698Z,5.92
2024-01-16T12:45:59.571Z,5.77
2024-01-16T12:48:30.229Z,5.72
2024-01-16T12:51:05.044Z,5.67
2024-01-16T12:53:33.299Z,5.47
2024-01-16T12:56:01.984Z,5.35
2024-01-16T12:58:35.921Z,5.26
2024-01-16T13:01:35.033Z,5.25
2024-01-16T13:04:06.974Z,5.33
2024-01-16T13:06:33.860Z,5.45
2024-01-16T13:09:12.465Z,5.52
2024-01-16T13:11:57.453Z,5.76
2024-01-16T13:14:24.793Z,6.17
2024-01-16T13:16:52.310Z,6.17
2024-01-16T13:19:23.002Z,6.13
2024-01-16T13:21:50.939Z,5.93
2024-01-16T13:24:24.527Z,5.81
2024-01-16T13:26:51.945Z,5.70
2024-01-16T13:29:18.691Z,5.74
2024-01-16T13:31:45.600Z,5.79
2024-01-16T13:34:13.375Z,5.88
2024-01-16T13:36:54.234Z,5.67
2024-01-16T13:39:27.664Z,5.43
2024-01-16T13:41:54.798Z,4.91
2024-01-16T13:44:21.523Z,4.65
2024-01-16T13:46:57.759Z,4.42
2024-01-16T13:49:34.790Z,4.48
2024-01-16T13:52:01.960Z,4.58
2024-01-16T13:54:28.716Z,4.47
2024-01-16T13:57:03.300Z,4.49
2024-01-16T13:59:34.552Z,4.41
2024-01-16T14:02:02.274Z,4.30
2024-01-16T14:04:29.716Z,4.32
2024-01-16T14:07:10.434Z,4.13
2024-01-16T14:09:42.880Z,3.92
2024-01-16T14:12:10.555Z,3.92
2024-01-16T14:14:39.721Z,3.92
2024-01-16T14:17:06.934Z,4.01
2024-01-16T14:19:37.399Z,4.00
2024-01-16T14:22:04.528Z,3.93
2024-01-16T14:24:31.566Z,3.92
2024-01-16T14:26:58.661Z,3.82
2024-01-16T14:29:25.549Z,3.73
2024-01-16T14:31:52.631Z,3.67
2024-01-16T14:34:20.498Z,3.49
2024-01-16T14:36:47.893Z,3.44
2024-01-16T14:39:18.673Z,3.38
2024-01-16T14:41:45.986Z,3.34
2024-01-16T14:44:13.490Z,3.34
2024-01-16T14:46:41.789Z,3.34
2024-01-16T14:49:09.024Z,3.34
2024-01-16T14:51:36.632Z,3.35
2024-01-16T14:54:03.539Z,3.33
2024-01-16T14:56:31.455Z,3.28
2024-01-16T14:58:58.794Z,3.17
2024-01-16T15:01:25.505Z,3.09
2024-01-16T15:03:52.670Z,3.01
2024-01-16T15:06:19.558Z,2.88
2024-01-16T15:08:46.419Z,2.75
2024-01-16T15:11:13.217Z,2.55
2024-01-16T15:13:39.992Z,2.41
2024-01-16T15:16:06.678Z,2.31
2024-01-16T15:18:33.856Z,2.16
2024-01-16T15:21:00.757Z,2.04
2024-01-16T15:23:29.025Z,1.98
2024-01-16T15:25:56.161Z,1.93
2024-01-16T15:28:22.838Z,1.88
2024-01-16T15:30:49.715Z,1.80
2024-01-16T15:33:16.778Z,1.76
2024-01-16T15:35:43.548Z,1.69
2024-01-16T15:38:11.699Z,1.60
2024-01-16T15:40:38.440Z,1.56
2024-01-16T15:43:05.157Z,1.55
2024-01-16T15:45:31.985Z,1.51
2024-01-16T15:47:59.185Z,1.41
2024-01-16T15:50:27.897Z,1.26
2024-01-16T15:52:55.160Z,1.08
2024-01-16T15:55:22.238Z,0.95
2024-01-16T15:57:49.391Z,0.98
2024-01-16T16:02:47.528Z,0.89
2024-01-16T16:05:14.538Z,0.91
2024-01-16T16:07:41.307Z,0.87
2024-01-16T16:10:08.676Z,0.82
2024-01-16T16:12:35.348Z,0.80
2024-01-16T16:15:02.302Z,0.77
2024-01-16T16:17:29.181Z,0.74
2024-01-16T16:19:55.883Z,0.71
2024-01-16T16:22:22.608Z,0.62
2024-01-16T16:24:49.852Z,0.60
2024-01-16T16:27:25.001Z,0.58
2024-01-16T16:29:54.508Z,0.52
2024-01-16T16:32:21.264Z,0.51
2024-01-16T16:34:48.621Z,0.43
2024-01-16T16:37:15.440Z,0.38
2024-01-16T16:39:42.333Z,0.37
2024-01-16T16:42:09.113Z,0.27
2024-01-16T16:44:35.941Z,0.11
2024-01-16T16:47:03.644Z,-0.15
2024-01-16T16:49:30.445Z,-0.27
2024-01-16T16:51:57.143Z,-0.23
2024-01-16T16:54:24.957Z,-0.18
2024-01-16T16:56:52.588Z,-0.17
2024-01-16T16:59:19.389Z,-0.16
2024-01-16T17:01:46.089Z,-0.14
2024-01-16T17:04:12.957Z,-0.20
2024-01-16T17:06:39.842Z,-0.18
2024-01-16T17:09:12.972Z,-0.23
2024-01-16T17:11:40.660Z,-0.25
2024-01-16T17:14:07.466Z,-0.24
2024-01-16T17:16:34.222Z,-0.29
2024-01-16T17:19:01.086Z,-0.29
2024-01-16T17:21:28.129Z,-0.35
2024-01-16T17:23:54.921Z,-0.41
2024-01-16T17:26:22.122Z,-0.71
2024-01-16T17:28:48.826Z,-0.88
2024-01-16T17:31:15.575Z,-0.96
2024-01-16T17:33:44.692Z,-1.01
2024-01-16T17:36:12.581Z,-1.13
2024-01-16T17:38:41.347Z,-1.10
2024-01-16T17:41:08.232Z,-1.07
2024-01-16T17:43:35.019Z,-1.10
2024-01-16T17:46:01.713Z,-1.20
2024-01-16T17:48:29.153Z,-1.33
2024-01-16T17:50:56.345Z,-1.37
2024-01-16T17:53:23.299Z,-1.56
2024-01-16T17:55:50.032Z,-1.66
2024-01-16T17:58:16.883Z,-1.68
2024-01-16T18:00:43.819Z,-1.83
2024-01-16T18:03:24.464Z,-1.98
2024-01-16T18:06:00.762Z,-2.15
2024-01-16T18:08:27.596Z,-2.03
2024-01-16T18:10:55.813Z,-1.93
2024-01-16T18:13:23.397Z,-1.89
2024-01-16T18:15:50.187Z,-1.98
2024-01-16T18:18:18.573Z,-2.06
2024-01-16T18:20:45.441Z,-2.06
2024-01-16T18:23:12.661Z,-2.14
2024-01-16T18:25:39.431Z,-2.12
2024-01-16T18:28:06.409Z,-2.15
2024-01-16T18:30:36.006Z,-2.27
2024-01-16T18:33:04.204Z,-2.38
2024-01-16T18:35:30.989Z,-2.49
2024-01-16T18:37:58.617Z,-2.69
2024-01-16T18:40:27.036Z,-2.86
2024-01-16T18:42:53.748Z,-2.95
2024-01-16T18:45:20.454Z,-3.00
2024-01-16T18:47:49.452Z,-3.08
2024-01-16T18:50:18.779Z,-3.18
2024-01-16T18:52:46.471Z,-3.49
2024-01-16T18:55:17.186Z,-3.53
2024-01-16T18:57:44.454Z,-3.53
2024-01-16T19:00:16.065Z,-3.49
2024-01-16T19:02:49.209Z,-3.43
2024-01-16T19:05:17.150Z,-3.36
2024-01-16T19:07:45.582Z,-3.29
2024-01-16T19:10:13.863Z,-3.18
2024-01-16T19:12:48.095Z,-3.18
2024-01-16T19:15:19.157Z,-3.22
2024-01-16T19:17:51.851Z,-3.30
2024-01-16T19:20:23.101Z,-3.43
2024-01-16T19:22:56.473Z,-3.63
2024-01-16T19:25:26.569Z,-4.02
2024-01-16T19:27:53.723Z,-4.03
2024-01-16T19:30:21.731Z,-4.05
2024-01-16T19:32:49.606Z,-4.09
2024-01-16T19:35:18.477Z,-4.31
2024-01-16T19:37:45.816Z,-4.36
2024-01-16T19:40:14.048Z,-4.43
2024-01-16T19:42:41.523Z,-4.48
2024-01-16T19:45:10.499Z,-4.52
2024-01-16T19:47:43.072Z,-4.51
2024-01-16T19:50:21.379Z,-4.53
2024-01-16T19:52:51.629Z,-4.87
2024-01-16T19:55:22.386Z,-4.92
2024-01-16T19:57:49.303Z,-4.88
2024-01-16T20:00:17.892Z,-5.05
2024-01-16T20:02:45.523Z,-5.08
2024-01-16T20:05:16.454Z,-5.23
2024-01-16T20:07:43.859Z,-5.18
2024-01-16T20:10:15.199Z,-5.16
2024-01-16T20:12:46.804Z,-5.21
2024-01-16T20:15:14.839Z,-5.15
2024-01-16T20:17:42.930Z,-5.16
2024-01-16T20:20:11.719Z,-5.18
2024-01-16T20:22:38.788Z,-5.16
2024-01-16T20:25:06.112Z,-5.16
2024-01-16T20:27:33.205Z,-5.16
2024-01-16T20:30:00.043Z,-5.18
2024-01-16T20:32:26.959Z,-5.24
2024-01-16T20:34:54.551Z,-5.60
2024-01-16T20:37:21.340Z,-5.72
2024-01-16T20:39:48.757Z,-5.68
2024-01-16T20:42:15.493Z,-5.61
2024-01-16T20:44:42.239Z,-5.60
2024-01-16T20:47:11.624Z,-5.64
2024-01-16T20:49:38.464Z,-5.65
2024-01-16T20:52:05.961Z,-5.63
2024-01-16T20:54:32.805Z,-5.60
2024-01-16T20:56:59.761Z,-5.60
2024-01-16T20:59:26.595Z,-5.68
2024-01-16T21:01:53.382Z,-5.74
2024-01-16T21:04:20.179Z,-5.91
2024-01-16T21:06:47.028Z,-5.95
2024-01-16T21:09:17.039Z,-6.16
2024-01-16T21:11:44.897Z,-6.13
2024-01-16T21:14:11.808Z,-6.29
2024-01-16T21:16:38.742Z,-6.25
2024-01-16T21:19:08.888Z,-6.99
2024-01-16T21:21:35.723Z,-6.79
2024-01-16T21:24:05.474Z,-6.60
2024-01-16T21:26:32.248Z,-7.00
2024-01-16T21:28:59.116Z,-6.95
2024-01-16T21:31:25.792Z,-7.09
2024-01-16T21:33:52.837Z,-6.89
2024-01-16T21:36:19.954Z,-6.88
2024-01-16T21:38:46.745Z,-6.90
2024-01-16T21:41:13.849Z,-6.67
2024-01-16T21:43:41.494Z,-6.50
2024-01-16T21:46:08.243Z,-6.42
2024-01-16T21:48:35.178Z,-6.36
2024-01-16T21:51:02.237Z,-6.51
2024-01-16T21:53:30.344Z,-6.62
2024-01-16T21:55:57.274Z,-6.64
2024-01-16T21:58:23.985Z,-6.81
2024-01-16T22:00:51.677Z,-6.78
2024-01-16T22:03:18.818Z,-6.76
2024-01-16T22:05:46.258Z,-6.69
2024-01-16T22:08:13.229Z,-6.73
2024-01-16T22:10:43.365Z,-6.60
2024-01-16T22:13:12.637Z,-6.63
2024-01-16T22:15:39.427Z,-6.66
2024-01-16T22:18:06.288Z,-6.62
2024-01-16T22:20:33.767Z,-6.58
2024-01-16T22:23:01.099Z,-6.48
2024-01-16T22:25:29.597Z,-6.45
2024-01-16T22:27:56.468Z,-6.47
2024-01-16T22:30:23.315Z,-6.50
2024-01-16T22:32:50.273Z,-6.48
2024-01-16T22:35:17.071Z,-6.47
2024-01-16T22:37:48.002Z,-6.49
2024-01-16T22:40:15.365Z,-6.56
2024-01-16T22:42:42.063Z,-6.63
2024-01-16T22:45:09.804Z,-6.79
2024-01-16T22:47:40.274Z,-6.75
2024-01-16T22:50:10.454Z,-6.77
2024-01-16T22:52:37.132Z,-6.92
2024-01-16T22:55:05.317Z,-6.89
2024-01-16T22:57:33.943Z,-6.89
2024-01-16T23:00:01.380Z,-6.83
2024-01-16T23:02:30.116Z,-7.01
2024-01-16T23:04:57.045Z,-6.94
2024-01-16T23:07:23.841Z,-6.91
2024-01-16T23:09:50.531Z,-6.86
2024-01-16T23:12:17.293Z,-6.92
2024-01-16T23:14:44.549Z,-7.00
2024-01-16T23:17:13.197Z,-7.13
2024-01-16T23:19:40.247Z,-7.17
2024-01-16T23:22:08.570Z,-7.16
2024-01-16T23:24:35.313Z,-7.09
2024-01-16T23:27:02.068Z,-7.01
2024-01-16T23:29:31.072Z,-7.05
2024-01-16T23:31:58.099Z,-6.99
2024-01-16T23:34:24.867Z,-6.93
2024-01-16T23:36:51.567Z,-6.91
2024-01-16T23:39:19.266Z,-6.93
2024-01-16T23:41:46.142Z,-7.13
2024-01-16T23:44:12.986Z,-7.13
2024-01-16T23:46:40.048Z,-7.04
2024-01-16T23:49:07.070Z,-7.04
2024-01-16T23:51:33.889Z,-7.10
2024-01-16T23:54:03.379Z,-7.18
2024-01-16T23:56:30.377Z,-7.11
2024-01-16T23:58:57.083Z,-7.13
